createdAt,value
2019-03-15T00:00:13.088Z,25.7
2019-03-15T00:01:15.540Z,25.9
2019-03-15T00:02:17.713Z,25.8
2019-03-15T00:03:19.876Z,26.1
2019-03-15T00:04:22.332Z,25.9
2019-03-15T00:05:24.187Z,25.9
2019-03-15T00:06:26.353Z,26
2019-03-15T00:07:28.226Z,25.7
2019-03-15T00:08:31.321Z,26
2019-03-15T00:09:33.580Z,25.8
2019-03-15T00:10:36.003Z,25.8
2019-03-15T00:11:38.461Z,26.2
2019-03-15T00:12:40.878Z,26
2019-03-15T00:13:43.304Z,26
2019-03-15T00:14:45.447Z,25.9
2019-03-15T00:15:47.587Z,26
2019-03-15T00:16:49.754Z,25.9
2019-03-15T00:17:52.177Z,25.8
2019-03-15T00:18:54.325Z,26.1
2019-03-15T00:19:56.771Z,26.1
2019-03-15T00:20:59.002Z,26.3
2019-03-15T00:22:01.430Z,25.9
2019-03-15T00:23:03.859Z,26
2019-03-15T00:24:06.038Z,26
2019-03-15T00:25:08.181Z,26
2019-03-15T00:26:10.342Z,26.3
2019-03-15T00:27:12.771Z,26.1
2019-03-15T00:28:15.009Z,26.2
2019-03-15T00:29:17.185Z,26.1
2019-03-15T00:30:19.347Z,26.2
2019-03-15T00:31:21.785Z,26.3
2019-03-15T00:32:24.213Z,25.9
2019-03-15T00:33:26.396Z,26
2019-03-15T00:34:28.810Z,26.2
2019-03-15T00:35:31.233Z,26.3
2019-03-15T00:36:33.102Z,26.1
2019-03-15T00:37:35.568Z,26.3
2019-03-15T00:38:37.704Z,26.4
2019-03-15T00:39:39.601Z,26.1
2019-03-15T00:40:42.652Z,26
2019-03-15T00:41:44.864Z,26.5
2019-03-15T00:42:47.455Z,26.3
2019-03-15T00:43:49.917Z,26.3
2019-03-15T00:44:52.531Z,26.5
2019-03-15T00:45:54.964Z,26.5
2019-03-15T00:46:57.401Z,26.4
2019-03-15T00:47:59.837Z,26.2
2019-03-15T00:49:01.955Z,26.2
2019-03-15T00:50:03.859Z,26.3
2019-03-15T00:51:06.284Z,26.4
2019-03-15T00:52:08.723Z,26.5
2019-03-15T00:53:10.914Z,26.5
2019-03-15T00:54:13.333Z,26.6
2019-03-15T00:55:15.475Z,26.7
2019-03-15T00:56:17.910Z,26.7
2019-03-15T00:57:20.061Z,26.6
2019-03-15T00:58:22.221Z,26.5
2019-03-15T00:59:24.645Z,26.4
2019-03-15T01:00:27.085Z,26.6
2019-03-15T01:01:29.508Z,26.6
2019-03-15T01:02:31.383Z,26.5
2019-03-15T01:03:33.821Z,26.7
2019-03-15T01:04:36.241Z,26.6
2019-03-15T01:05:38.677Z,26.6
2019-03-15T01:06:41.097Z,26.6
2019-03-15T01:07:43.261Z,26.6
2019-03-15T01:08:45.684Z,26.6
2019-03-15T01:09:47.556Z,26.8
2019-03-15T01:10:49.982Z,26.8
2019-03-15T01:11:52.423Z,26.7
2019-03-15T01:12:54.584Z,26.8
2019-03-15T01:13:57.005Z,26.7
2019-03-15T01:14:59.432Z,26.7
2019-03-15T01:16:01.593Z,26.8
2019-03-15T01:17:04.029Z,26.8
2019-03-15T01:18:06.451Z,26.9
2019-03-15T01:19:08.899Z,26.7
2019-03-15T01:20:12.144Z,26.7
2019-03-15T01:21:13.749Z,26.8
2019-03-15T01:22:16.188Z,26.6
2019-03-15T01:23:18.614Z,26.9
2019-03-15T01:24:21.041Z,26.8
2019-03-15T01:25:23.479Z,26.7
2019-03-15T01:26:25.658Z,27
2019-03-15T01:27:28.080Z,26.7
2019-03-15T01:28:30.510Z,26.9
2019-03-15T01:29:32.115Z,26.9
2019-03-15T01:30:34.272Z,26.8
2019-03-15T01:31:36.151Z,26.7
2019-03-15T01:32:38.594Z,26.8
2019-03-15T01:33:40.731Z,26.6
2019-03-15T01:34:43.222Z,26.8
2019-03-15T01:35:45.650Z,26.8
2019-03-15T01:36:47.809Z,27
2019-03-15T01:37:50.229Z,26.8
2019-03-15T01:38:52.397Z,27
2019-03-15T01:39:54.821Z,26.8
2019-03-15T01:40:57.240Z,26.7
2019-03-15T01:41:59.677Z,26.9
2019-03-15T01:43:01.829Z,26.7
2019-03-15T01:44:03.739Z,26.7
2019-03-15T01:45:06.147Z,26.8
2019-03-15T01:46:08.465Z,26.9
2019-03-15T01:47:10.910Z,26.8
2019-03-15T01:48:13.349Z,26.7
2019-03-15T01:49:15.640Z,26.8
2019-03-15T01:50:17.782Z,26.9
2019-03-15T01:51:20.207Z,26.7
2019-03-15T01:52:22.642Z,26.6
2019-03-15T01:53:25.076Z,26.6
2019-03-15T01:54:27.503Z,26.8
2019-03-15T01:55:29.924Z,26.7
2019-03-15T01:56:32.363Z,26.6
2019-03-15T01:57:34.525Z,26.5
2019-03-15T01:58:36.982Z,26.6
2019-03-15T01:59:39.139Z,26.5
2019-03-15T02:00:40.736Z,26.5
2019-03-15T02:01:43.164Z,26.5
2019-03-15T02:02:45.592Z,26.8
2019-03-15T02:03:49.048Z,26.4
2019-03-15T02:04:51.461Z,26.6
2019-03-15T02:05:53.372Z,26.6
2019-03-15T02:06:55.815Z,26.4
2019-03-15T02:07:57.705Z,26.4
2019-03-15T02:09:01.223Z,26.3
2019-03-15T02:10:03.370Z,26.5
2019-03-15T02:11:05.631Z,26.4
2019-03-15T02:12:07.794Z,26.6
2019-03-15T02:13:09.942Z,26.5
2019-03-15T02:14:12.474Z,26.5
2019-03-15T02:15:14.607Z,26.4
2019-03-15T02:16:16.211Z,26.6
2019-03-15T02:17:18.643Z,26.3
2019-03-15T02:18:21.069Z,26.3
2019-03-15T02:19:23.497Z,26.4
2019-03-15T02:20:25.994Z,26.3
2019-03-15T02:21:29.323Z,26.5
2019-03-15T02:22:31.763Z,26.3
2019-03-15T02:23:34.743Z,26.5
2019-03-15T02:24:37.165Z,25.9
2019-03-15T02:25:39.315Z,26.2
2019-03-15T02:26:41.759Z,26.3
2019-03-15T02:27:44.192Z,26.3
2019-03-15T02:28:46.077Z,26.1
2019-03-15T02:29:48.235Z,26.1
2019-03-15T02:30:50.372Z,26.2
2019-03-15T02:31:52.855Z,26
2019-03-15T02:32:55.293Z,26.5
2019-03-15T02:33:57.728Z,26.2
2019-03-15T02:35:01.683Z,26.4
2019-03-15T02:36:04.114Z,26.2
2019-03-15T02:37:07.011Z,26.2
2019-03-15T02:38:09.340Z,26.5
2019-03-15T02:39:11.248Z,26.4
2019-03-15T02:40:13.413Z,26.1
2019-03-15T02:41:15.285Z,26.4
2019-03-15T02:42:17.718Z,26.1
2019-03-15T02:43:19.863Z,26
2019-03-15T02:44:22.286Z,26.2
2019-03-15T02:45:24.161Z,26.2
2019-03-15T02:46:26.317Z,26.1
2019-03-15T02:47:28.738Z,26.2
2019-03-15T02:48:30.896Z,25.7
2019-03-15T02:49:34.812Z,26.2
2019-03-15T02:50:36.583Z,26.2
2019-03-15T02:51:38.758Z,26.1
2019-03-15T02:52:42.287Z,26
2019-03-15T02:53:44.853Z,26.2
2019-03-15T02:54:47.014Z,26.2
2019-03-15T02:55:48.662Z,26.3
2019-03-15T02:56:51.326Z,26.1
2019-03-15T02:57:53.189Z,26.2
2019-03-15T02:58:55.635Z,26.1
2019-03-15T02:59:57.792Z,25.9
2019-03-15T03:01:00.223Z,26.2
2019-03-15T03:02:02.373Z,26.3
2019-03-15T03:03:04.805Z,25.9
2019-03-15T03:04:06.976Z,26.3
2019-03-15T03:05:09.149Z,26.1
2019-03-15T03:06:11.648Z,26.2
2019-03-15T03:07:14.069Z,26.2
2019-03-15T03:08:16.245Z,26.2
2019-03-15T03:09:18.377Z,26.3
2019-03-15T03:10:20.821Z,26.1
2019-03-15T03:11:23.994Z,26.2
2019-03-15T03:12:26.490Z,26.3
2019-03-15T03:13:28.925Z,26.2
2019-03-15T03:14:31.351Z,25.9
2019-03-15T03:15:33.510Z,26.2
2019-03-15T03:16:35.941Z,26.2
2019-03-15T03:17:38.609Z,26.3
2019-03-15T03:18:42.444Z,25.8
2019-03-15T03:19:44.624Z,26.5
2019-03-15T03:20:48.161Z,26.1
2019-03-15T03:21:50.471Z,25.9
2019-03-15T03:22:53.279Z,26
2019-03-15T03:23:55.408Z,26.4
2019-03-15T03:24:58.910Z,25.9
2019-03-15T03:26:01.370Z,25.8
2019-03-15T03:27:03.835Z,26.2
2019-03-15T03:28:07.282Z,26
2019-03-15T03:29:09.714Z,26.1
2019-03-15T03:30:12.852Z,26
2019-03-15T03:31:17.514Z,26
2019-03-15T03:32:20.015Z,26
2019-03-15T03:33:22.184Z,26.2
2019-03-15T03:34:24.327Z,26
2019-03-15T03:35:26.496Z,26.2
2019-03-15T03:36:28.947Z,26.1
2019-03-15T03:37:31.385Z,26
2019-03-15T03:38:33.542Z,26.2
2019-03-15T03:39:35.704Z,25.7
2019-03-15T03:40:38.141Z,26.2
2019-03-15T03:41:40.060Z,25.9
2019-03-15T03:42:42.210Z,26
2019-03-15T03:43:44.375Z,26.2
2019-03-15T03:44:47.162Z,25.9
2019-03-15T03:45:49.036Z,26.1
2019-03-15T03:46:52.469Z,26.2
2019-03-15T03:47:54.698Z,26.3
2019-03-15T03:48:56.874Z,25.8
2019-03-15T03:49:59.019Z,25.9
2019-03-15T03:51:01.441Z,26.1
2019-03-15T03:52:03.862Z,26
2019-03-15T03:53:06.293Z,26.2
2019-03-15T03:54:08.720Z,26.3
2019-03-15T03:55:10.881Z,25.7
2019-03-15T03:56:13.304Z,26
2019-03-15T03:57:15.732Z,26.1
2019-03-15T03:58:18.164Z,26.2
2019-03-15T03:59:20.600Z,26.1
2019-03-15T04:00:22.462Z,26.2
2019-03-15T04:01:24.620Z,26.2
2019-03-15T04:02:27.043Z,26.1
2019-03-15T04:03:29.482Z,26
2019-03-15T04:04:31.908Z,25.7
2019-03-15T04:05:33.500Z,25.8
2019-03-15T04:06:35.933Z,26.2
2019-03-15T04:07:38.368Z,26.3
2019-03-15T04:08:40.812Z,26.2
2019-03-15T04:09:42.986Z,25.6
2019-03-15T04:10:44.849Z,25.8
2019-03-15T04:11:55.062Z,26.2
2019-03-15T04:12:52.008Z,26.1
2019-03-15T04:13:54.444Z,25.8
2019-03-15T04:14:56.573Z,26.1
2019-03-15T04:15:58.720Z,26
2019-03-15T04:17:01.144Z,25.8
2019-03-15T04:18:06.464Z,25.9
2019-03-15T04:19:08.560Z,26
2019-03-15T04:20:10.720Z,25.7
2019-03-15T04:21:13.145Z,26
2019-03-15T04:22:15.314Z,25.9
2019-03-15T04:23:17.456Z,25.8
2019-03-15T04:24:19.898Z,25.8
2019-03-15T04:25:22.063Z,26.1
2019-03-15T04:26:24.204Z,25.9
2019-03-15T04:27:26.382Z,26
2019-03-15T04:28:27.892Z,25.8
2019-03-15T04:29:30.066Z,25.9
2019-03-15T04:30:32.494Z,25.9
2019-03-15T04:31:34.664Z,25.9
2019-03-15T04:32:36.787Z,26
2019-03-15T04:33:39.470Z,25.7
2019-03-15T04:34:41.613Z,25.9
2019-03-15T04:35:43.812Z,26
2019-03-15T04:36:46.246Z,26.1
2019-03-15T04:37:48.693Z,25.8
2019-03-15T04:38:51.244Z,26
2019-03-15T04:39:53.184Z,25.7
2019-03-15T04:40:55.612Z,25.9
2019-03-15T04:41:58.212Z,26
2019-03-15T04:43:00.412Z,25.8
2019-03-15T04:44:03.064Z,25.8
2019-03-15T04:45:05.491Z,26.2
2019-03-15T04:46:08.012Z,26
2019-03-15T04:47:10.457Z,26
2019-03-15T04:48:12.610Z,25.9
2019-03-15T04:49:15.044Z,25.9
2019-03-15T04:50:17.473Z,26
2019-03-15T04:51:19.330Z,25.7
2019-03-15T04:52:21.765Z,25.8
2019-03-15T04:53:24.201Z,25.8
2019-03-15T04:54:26.645Z,26.1
2019-03-15T04:55:29.074Z,26
2019-03-15T04:56:30.670Z,26
2019-03-15T04:57:32.533Z,26
2019-03-15T04:58:34.962Z,25.8
2019-03-15T04:59:37.402Z,25.7
2019-03-15T05:00:39.563Z,25.7
2019-03-15T05:01:42.018Z,26.1
2019-03-15T05:02:44.451Z,25.7
2019-03-15T05:03:46.875Z,25.8
2019-03-15T05:04:49.305Z,25.8
2019-03-15T05:06:02.355Z,26
2019-03-15T05:06:56.709Z,25.9
2019-03-15T05:07:58.594Z,25.9
2019-03-15T05:09:00.762Z,25.6
2019-03-15T05:10:03.190Z,25.7
2019-03-15T05:11:05.612Z,26.1
2019-03-15T05:12:08.033Z,25.9
2019-03-15T05:13:10.170Z,25.8
2019-03-15T05:14:12.600Z,25.7
2019-03-15T05:15:15.028Z,25.9
2019-03-15T05:16:17.192Z,26
2019-03-15T05:17:19.356Z,25.7
2019-03-15T05:18:21.780Z,26.2
2019-03-15T05:19:23.659Z,26
2019-03-15T05:20:26.087Z,25.6
2019-03-15T05:21:28.238Z,25.9
2019-03-15T05:22:30.394Z,25.8
2019-03-15T05:23:32.550Z,26
2019-03-15T05:24:34.984Z,25.5
2019-03-15T05:25:36.856Z,25.7
2019-03-15T05:26:39.122Z,25.9
2019-03-15T05:27:41.663Z,25.8
2019-03-15T05:28:43.639Z,25.9
2019-03-15T05:29:46.105Z,25.8
2019-03-15T05:30:48.554Z,25.8
2019-03-15T05:31:50.995Z,26
2019-03-15T05:32:53.426Z,25.8
2019-03-15T05:33:55.598Z,25.7
2019-03-15T05:34:58.048Z,25.7
2019-03-15T05:36:00.204Z,25.7
2019-03-15T05:37:02.650Z,25.8
2019-03-15T05:38:04.502Z,25.7
2019-03-15T05:39:06.931Z,25.7
2019-03-15T05:40:09.418Z,25.7
2019-03-15T05:41:11.293Z,25.9
2019-03-15T05:42:13.714Z,25.7
2019-03-15T05:43:16.150Z,25.6
2019-03-15T05:44:18.282Z,25.9
2019-03-15T05:45:20.447Z,25.7
2019-03-15T05:46:22.642Z,25.7
2019-03-15T05:47:24.847Z,25.7
2019-03-15T05:48:26.716Z,26
2019-03-15T05:49:28.602Z,25.8
2019-03-15T05:50:31.052Z,25.8
2019-03-15T05:51:32.907Z,25.9
2019-03-15T05:52:35.061Z,25.7
2019-03-15T05:53:37.570Z,25.7
2019-03-15T05:54:40.007Z,25.7
2019-03-15T05:55:42.481Z,25.8
2019-03-15T05:56:45.002Z,25.9
2019-03-15T05:57:47.448Z,26
2019-03-15T05:58:49.900Z,25.7
2019-03-15T05:59:52.327Z,25.8
2019-03-15T06:00:54.772Z,25.7
2019-03-15T06:01:57.195Z,26
2019-03-15T06:02:59.361Z,26
2019-03-15T06:04:01.792Z,25.8
2019-03-15T06:05:03.683Z,25.9
2019-03-15T06:06:10.588Z,25.8
2019-03-15T06:07:12.752Z,25.8
2019-03-15T06:08:15.043Z,26
2019-03-15T06:09:17.484Z,26.1
2019-03-15T06:10:19.916Z,25.8
2019-03-15T06:11:22.086Z,25.6
2019-03-15T06:12:24.236Z,25.9
2019-03-15T06:13:26.660Z,25.8
2019-03-15T06:14:29.090Z,25.8
2019-03-15T06:15:30.984Z,25.7
2019-03-15T06:16:33.422Z,25.6
2019-03-15T06:17:35.014Z,25.9
2019-03-15T06:18:37.438Z,25.9
2019-03-15T06:19:39.866Z,26
2019-03-15T06:20:42.041Z,25.9
2019-03-15T06:21:44.480Z,25.8
2019-03-15T06:22:46.911Z,25.9
2019-03-15T06:23:49.343Z,25.7
2019-03-15T06:24:51.503Z,26
2019-03-15T06:25:53.924Z,26.1
2019-03-15T06:26:55.872Z,25.7
2019-03-15T06:27:57.745Z,25.9
2019-03-15T06:29:01.572Z,26
2019-03-15T06:30:04.163Z,25.7
2019-03-15T06:31:06.603Z,25.8
2019-03-15T06:32:09.033Z,25.7
2019-03-15T06:33:11.461Z,25.9
2019-03-15T06:34:13.805Z,25.8
2019-03-15T06:35:15.953Z,25.7
2019-03-15T06:36:18.386Z,25.8
2019-03-15T06:37:20.832Z,25.9
2019-03-15T06:38:23.371Z,26
2019-03-15T06:39:25.931Z,26.1
2019-03-15T06:40:28.090Z,26
2019-03-15T06:41:30.244Z,25.7
2019-03-15T06:42:32.678Z,25.9
2019-03-15T06:43:35.124Z,26
2019-03-15T06:44:37.789Z,26
2019-03-15T06:45:41.774Z,25.9
2019-03-15T06:46:44.313Z,25.7
2019-03-15T06:47:46.742Z,25.8
2019-03-15T06:48:48.866Z,25.7
2019-03-15T06:49:51.290Z,25.8
2019-03-15T06:50:53.450Z,25.8
2019-03-15T06:51:55.886Z,25.9
2019-03-15T06:52:58.331Z,25.8
2019-03-15T06:54:10.743Z,25.7
2019-03-15T06:55:05.660Z,25.8
2019-03-15T06:56:08.232Z,26
2019-03-15T06:57:10.383Z,25.8
2019-03-15T06:58:12.834Z,25.8
2019-03-15T06:59:14.972Z,25.8
2019-03-15T07:00:17.150Z,26.1
2019-03-15T07:01:19.299Z,25.8
2019-03-15T07:02:21.733Z,25.9
2019-03-15T07:03:23.885Z,25.9
2019-03-15T07:04:26.310Z,25.8
2019-03-15T07:05:28.197Z,25.7
2019-03-15T07:06:30.620Z,25.9
2019-03-15T07:07:32.790Z,25.9
2019-03-15T07:08:35.001Z,25.7
2019-03-15T07:09:38.358Z,25.7
2019-03-15T07:10:43.973Z,25.9
2019-03-15T07:11:45.881Z,26
2019-03-15T07:12:48.311Z,25.7
2019-03-15T07:13:50.742Z,25.7
2019-03-15T07:14:52.597Z,25.7
2019-03-15T07:15:54.746Z,25.9
2019-03-15T07:16:57.198Z,26
2019-03-15T07:17:59.703Z,25.9
2019-03-15T07:19:03.116Z,25.8
2019-03-15T07:20:05.368Z,25.8
2019-03-15T07:21:07.787Z,25.7
2019-03-15T07:22:10.222Z,25.9
2019-03-15T07:23:12.383Z,25.9
2019-03-15T07:24:24.348Z,25.9
2019-03-15T07:25:19.522Z,25.9
2019-03-15T07:26:21.662Z,25.5
2019-03-15T07:27:24.122Z,25.6
2019-03-15T07:28:25.994Z,25.6
2019-03-15T07:29:28.440Z,25.7
2019-03-15T07:30:30.871Z,25.9
2019-03-15T07:31:33.297Z,25.9
2019-03-15T07:32:35.453Z,25.7
2019-03-15T07:33:37.606Z,25.8
2019-03-15T07:34:40.043Z,25.7
2019-03-15T07:35:43.257Z,25.7
2019-03-15T07:36:45.389Z,25.7
2019-03-15T07:37:47.939Z,25.7
2019-03-15T07:38:50.383Z,25.7
2019-03-15T07:39:52.242Z,25.7
2019-03-15T07:40:54.410Z,25.7
2019-03-15T07:41:56.279Z,25.4
2019-03-15T07:43:02.151Z,25.7
2019-03-15T07:44:03.689Z,25.7
2019-03-15T07:45:06.193Z,25.8
2019-03-15T07:46:08.630Z,25.5
2019-03-15T07:47:10.765Z,25.7
2019-03-15T07:48:22.129Z,25.8
2019-03-15T07:49:17.902Z,25.6
2019-03-15T07:50:20.379Z,25.6
2019-03-15T07:51:22.617Z,25.9
2019-03-15T07:52:24.800Z,25.7
2019-03-15T07:53:27.224Z,25.6
2019-03-15T07:54:37.667Z,25.9
2019-03-15T07:55:34.624Z,25.8
2019-03-15T07:56:37.056Z,25.6
2019-03-15T07:57:38.943Z,25.7
2019-03-15T07:58:41.395Z,25.7
2019-03-15T07:59:43.266Z,25.7
2019-03-15T08:00:45.705Z,25.5
2019-03-15T08:01:48.128Z,25.7
2019-03-15T08:02:54.552Z,25.6
2019-03-15T08:03:56.729Z,25.7
2019-03-15T08:04:58.890Z,25.8
2019-03-15T08:06:01.035Z,25.6
2019-03-15T08:07:03.478Z,25.6
2019-03-15T08:08:05.351Z,25.8
2019-03-15T08:09:07.518Z,25.8
2019-03-15T08:10:10.248Z,25.5
2019-03-15T08:11:12.684Z,25.7
2019-03-15T08:12:15.103Z,25.8
2019-03-15T08:13:17.535Z,25.7
2019-03-15T08:14:20.004Z,25.9
2019-03-15T08:15:22.434Z,25.7
2019-03-15T08:16:24.871Z,25.7
2019-03-15T08:17:27.302Z,25.7
2019-03-15T08:18:29.735Z,25.6
2019-03-15T08:19:31.899Z,25.9
2019-03-15T08:20:34.330Z,25.7
2019-03-15T08:21:36.454Z,25.7
2019-03-15T08:22:38.928Z,25.7
2019-03-15T08:23:41.358Z,25.6
2019-03-15T08:24:51.194Z,25.6
2019-03-15T08:25:50.318Z,25.6
2019-03-15T08:26:52.664Z,25.9
2019-03-15T08:27:55.089Z,25.6
2019-03-15T08:28:57.527Z,25.5
2019-03-15T08:29:59.959Z,25.6
2019-03-15T08:31:02.390Z,25.5
2019-03-15T08:32:04.815Z,25.6
2019-03-15T08:33:10.308Z,25.7
2019-03-15T08:34:11.749Z,25.7
2019-03-15T08:35:14.197Z,25.7
2019-03-15T08:36:18.892Z,25.8
2019-03-15T08:37:21.608Z,25.7
2019-03-15T08:38:24.035Z,25.9
2019-03-15T08:39:26.229Z,25.7
2019-03-15T08:40:28.692Z,25.9
2019-03-15T08:41:30.865Z,25.9
2019-03-15T08:42:34.571Z,25.6
2019-03-15T08:43:37.182Z,25.6
2019-03-15T08:44:39.044Z,25.7
2019-03-15T08:45:40.935Z,25.6
2019-03-15T08:46:43.379Z,25.5
2019-03-15T08:47:45.832Z,25.7
2019-03-15T08:48:47.977Z,25.6
2019-03-15T08:49:50.117Z,25.8
2019-03-15T08:50:52.582Z,25.6
2019-03-15T08:52:03.554Z,25.7
2019-03-15T08:52:59.841Z,25.8
2019-03-15T08:54:02.331Z,25.8
2019-03-15T08:55:05.831Z,25.7
2019-03-15T08:56:08.465Z,25.6
2019-03-15T08:57:10.895Z,25.6
2019-03-15T08:58:19.053Z,25.7
2019-03-15T08:59:18.299Z,25.6
2019-03-15T09:00:20.735Z,25.7
2019-03-15T09:01:23.847Z,25.6
2019-03-15T09:02:26.145Z,25.7
2019-03-15T09:03:28.640Z,25.6
2019-03-15T09:04:35.545Z,25.5
2019-03-15T09:05:38.017Z,25.5
2019-03-15T09:06:41.074Z,25.6
2019-03-15T09:07:43.619Z,25.9
2019-03-15T09:08:45.851Z,25.6
2019-03-15T09:09:48.274Z,25.7
2019-03-15T09:10:50.446Z,25.8
2019-03-15T09:11:52.871Z,26
2019-03-15T09:12:54.767Z,25.7
2019-03-15T09:13:56.679Z,25.8
2019-03-15T09:14:59.106Z,25.5
2019-03-15T09:16:01.544Z,25.7
2019-03-15T09:17:04.007Z,25.6
2019-03-15T09:18:06.451Z,25.9
2019-03-15T09:19:08.887Z,25.7
2019-03-15T09:20:10.761Z,25.6
2019-03-15T09:21:12.945Z,25.7
2019-03-15T09:22:15.372Z,25.5
2019-03-15T09:23:17.842Z,25.7
2019-03-15T09:24:20.264Z,25.7
2019-03-15T09:25:22.475Z,25.8
2019-03-15T09:26:24.633Z,25.4
2019-03-15T09:27:27.057Z,25.8
2019-03-15T09:28:29.203Z,25.6
2019-03-15T09:29:31.363Z,25.9
2019-03-15T09:30:33.797Z,25.6
2019-03-15T09:31:46.887Z,25.5
2019-03-15T09:32:40.926Z,25.9
2019-03-15T09:33:42.535Z,25.5
2019-03-15T09:34:44.975Z,25.8
2019-03-15T09:35:47.399Z,25.7
2019-03-15T09:36:50.600Z,25.6
2019-03-15T09:37:52.517Z,25.8
2019-03-15T09:38:54.943Z,25.5
2019-03-15T09:39:57.373Z,25.8
2019-03-15T09:40:59.536Z,25.7
2019-03-15T09:42:02.059Z,25.7
2019-03-15T09:43:03.945Z,25.6
2019-03-15T09:44:06.382Z,25.6
2019-03-15T09:45:08.255Z,25.7
2019-03-15T09:46:10.702Z,25.5
2019-03-15T09:47:13.175Z,25.7
2019-03-15T09:48:15.610Z,25.6
2019-03-15T09:49:17.731Z,25.7
2019-03-15T09:50:33.146Z,25.9
2019-03-15T09:51:25.134Z,25.9
2019-03-15T09:52:27.300Z,25.7
2019-03-15T09:53:29.729Z,25.6
2019-03-15T09:54:31.892Z,25.7
2019-03-15T09:55:34.039Z,25.5
2019-03-15T09:56:36.482Z,25.6
2019-03-15T09:57:38.907Z,26
2019-03-15T09:58:41.075Z,25.7
2019-03-15T09:59:43.241Z,25.7
2019-03-15T10:00:45.397Z,25.9
2019-03-15T10:01:47.561Z,25.6
2019-03-15T10:02:49.706Z,25.7
2019-03-15T10:03:52.159Z,25.7
2019-03-15T10:04:54.678Z,25.6
2019-03-15T10:06:13.771Z,25.8
2019-03-15T10:07:06.081Z,25.7
2019-03-15T10:08:08.346Z,25.8
2019-03-15T10:09:10.880Z,25.8
2019-03-15T10:10:14.185Z,25.9
2019-03-15T10:11:17.764Z,25.7
2019-03-15T10:12:19.937Z,25.9
2019-03-15T10:13:22.375Z,25.7
2019-03-15T10:14:24.801Z,25.7
2019-03-15T10:15:27.235Z,25.8
2019-03-15T10:16:29.383Z,25.8
2019-03-15T10:17:31.530Z,25.7
2019-03-15T10:18:33.948Z,25.8
2019-03-15T10:19:36.102Z,25.7
2019-03-15T10:20:38.251Z,25.9
2019-03-15T10:21:40.682Z,25.8
2019-03-15T10:22:43.119Z,25.7
2019-03-15T10:23:45.001Z,25.7
2019-03-15T10:24:47.431Z,25.7
2019-03-15T10:25:51.330Z,25.9
2019-03-15T10:26:53.855Z,25.9
2019-03-15T10:27:56.011Z,25.7
2019-03-15T10:28:58.216Z,25.8
2019-03-15T10:30:00.648Z,25.6
2019-03-15T10:31:03.122Z,25.7
2019-03-15T10:32:05.533Z,25.7
2019-03-15T10:33:07.423Z,25.8
2019-03-15T10:34:09.550Z,25.6
2019-03-15T10:35:11.716Z,25.7
2019-03-15T10:36:13.886Z,25.7
2019-03-15T10:37:16.048Z,25.7
2019-03-15T10:38:18.486Z,25.6
2019-03-15T10:39:20.642Z,25.8
2019-03-15T10:40:23.088Z,25.8
2019-03-15T10:41:25.246Z,25.7
2019-03-15T10:42:27.681Z,25.7
2019-03-15T10:43:30.101Z,25.8
2019-03-15T10:44:32.550Z,25.8
2019-03-15T10:45:34.714Z,25.7
2019-03-15T10:46:36.857Z,25.7
2019-03-15T10:47:42.124Z,25.5
2019-03-15T10:48:44.019Z,25.7
2019-03-15T10:49:46.169Z,25.8
2019-03-15T10:50:48.624Z,25.6
2019-03-15T10:51:50.799Z,25.5
2019-03-15T10:52:53.875Z,25.9
2019-03-15T10:53:56.526Z,25.6
2019-03-15T10:54:58.963Z,25.7
2019-03-15T10:56:01.462Z,25.8
2019-03-15T10:57:03.918Z,25.6
2019-03-15T10:58:06.035Z,25.7
2019-03-15T10:59:08.482Z,25.8
2019-03-15T11:00:10.914Z,25.6
2019-03-15T11:01:13.062Z,25.5
2019-03-15T11:02:15.197Z,25.7
2019-03-15T11:03:17.632Z,25.7
2019-03-15T11:04:19.773Z,25.7
2019-03-15T11:05:21.931Z,25.7
2019-03-15T11:06:24.092Z,25.8
2019-03-15T11:07:26.628Z,25.7
2019-03-15T11:08:28.801Z,25.6
2019-03-15T11:09:30.953Z,25.5
2019-03-15T11:10:33.114Z,25.5
2019-03-15T11:11:35.537Z,25.7
2019-03-15T11:12:37.975Z,25.7
2019-03-15T11:13:40.146Z,25.5
2019-03-15T11:14:42.312Z,25.5
2019-03-15T11:15:44.811Z,25.8
2019-03-15T11:16:46.932Z,25.7
2019-03-15T11:17:49.099Z,25.5
2019-03-15T11:18:50.985Z,25.8
2019-03-15T11:19:53.426Z,25.6
2019-03-15T11:20:55.867Z,25.7
2019-03-15T11:21:58.282Z,25.6
2019-03-15T11:23:00.442Z,25.6
2019-03-15T11:24:02.858Z,25.8
2019-03-15T11:25:05.290Z,25.6
2019-03-15T11:26:13.276Z,25.5
2019-03-15T11:27:12.757Z,25.5
2019-03-15T11:28:14.373Z,25.4
2019-03-15T11:29:16.265Z,25.7
2019-03-15T11:30:18.408Z,25.7
2019-03-15T11:31:20.606Z,25.6
2019-03-15T11:32:23.042Z,25.8
2019-03-15T11:33:25.212Z,25.7
2019-03-15T11:34:27.647Z,25.7
2019-03-15T11:35:30.092Z,25.7
2019-03-15T11:36:32.530Z,25.7
2019-03-15T11:37:34.122Z,25.7
2019-03-15T11:38:36.262Z,25.8
2019-03-15T11:39:38.407Z,25.6
2019-03-15T11:40:40.832Z,25.7
2019-03-15T11:41:43.276Z,25.7
2019-03-15T11:42:45.193Z,25.6
2019-03-15T11:43:47.077Z,25.7
2019-03-15T11:44:49.208Z,25.7
2019-03-15T11:45:51.632Z,25.7
2019-03-15T11:46:54.070Z,25.6
2019-03-15T11:48:04.407Z,25.8
2019-03-15T11:49:01.590Z,25.8
2019-03-15T11:50:04.035Z,25.6
2019-03-15T11:51:06.181Z,25.8
2019-03-15T11:52:08.337Z,25.7
2019-03-15T11:53:10.768Z,25.7
2019-03-15T11:54:12.950Z,25.6
2019-03-15T11:55:15.089Z,25.6
2019-03-15T11:56:26.687Z,25.5
2019-03-15T11:57:22.498Z,25.9
2019-03-15T11:58:24.660Z,25.7
2019-03-15T11:59:26.806Z,25.6
2019-03-15T12:00:28.952Z,25.7
2019-03-15T12:01:31.106Z,25.7
2019-03-15T12:02:33.531Z,25.7
2019-03-15T12:03:35.674Z,25.6
2019-03-15T12:04:37.852Z,25.7
2019-03-15T12:05:40.075Z,25.6
2019-03-15T12:06:42.508Z,25.6
2019-03-15T12:07:44.686Z,25.6
2019-03-15T12:08:47.134Z,25.6
2019-03-15T12:09:49.579Z,25.6
2019-03-15T12:10:52.021Z,25.5
2019-03-15T12:11:54.176Z,25.5
2019-03-15T12:12:56.327Z,25.7
2019-03-15T12:13:58.770Z,25.8
2019-03-15T12:15:00.990Z,25.8
2019-03-15T12:16:03.413Z,25.6
2019-03-15T12:17:05.573Z,25.9
2019-03-15T12:18:08.471Z,25.6
2019-03-15T12:19:11.206Z,25.7
2019-03-15T12:20:13.460Z,25.5
2019-03-15T12:21:15.607Z,25.6
2019-03-15T12:22:17.760Z,25.6
2019-03-15T12:23:19.648Z,25.7
2019-03-15T12:24:22.075Z,25.8
2019-03-15T12:25:24.523Z,25.4
2019-03-15T12:26:39.354Z,25.5
2019-03-15T12:27:31.381Z,25.9
2019-03-15T12:28:33.821Z,25.7
2019-03-15T12:29:36.260Z,25.6
2019-03-15T12:30:38.422Z,25.5
2019-03-15T12:31:44.359Z,25.6
2019-03-15T12:32:46.517Z,25.6
2019-03-15T12:33:48.950Z,25.5
2019-03-15T12:34:51.386Z,25.8
2019-03-15T12:35:53.826Z,25.5
2019-03-15T12:36:55.968Z,25.7
2019-03-15T12:37:58.098Z,25.5
2019-03-15T12:39:00.250Z,25.7
2019-03-15T12:40:02.706Z,25.8
2019-03-15T12:41:05.137Z,25.8
2019-03-15T12:42:07.614Z,25.6
2019-03-15T12:43:10.069Z,25.8
2019-03-15T12:44:12.491Z,25.7
2019-03-15T12:45:15.012Z,25.5
2019-03-15T12:46:17.165Z,25.7
2019-03-15T12:47:19.372Z,25.7
2019-03-15T12:48:21.816Z,25.8
2019-03-15T12:49:25.603Z,25.8
2019-03-15T12:50:27.687Z,25.8
2019-03-15T12:51:32.248Z,25.8
2019-03-15T12:52:46.326Z,25.6
2019-03-15T12:53:40.091Z,25.7
2019-03-15T12:54:42.304Z,25.7
2019-03-15T12:55:44.470Z,25.9
2019-03-15T12:56:53.411Z,25.7
2019-03-15T12:57:51.901Z,25.7
2019-03-15T12:58:54.062Z,25.7
2019-03-15T12:59:55.975Z,25.9
2019-03-15T13:00:58.139Z,25.7
2019-03-15T13:02:00.563Z,25.7
2019-03-15T13:03:03.010Z,25.7
2019-03-15T13:04:05.446Z,25.6
2019-03-15T13:05:07.614Z,25.6
2019-03-15T13:06:09.798Z,25.6
2019-03-15T13:07:11.688Z,25.8
2019-03-15T13:08:14.104Z,25.8
2019-03-15T13:09:15.987Z,25.7
2019-03-15T13:10:18.417Z,25.7
2019-03-15T13:11:20.598Z,25.7
2019-03-15T13:12:23.022Z,25.7
2019-03-15T13:13:25.496Z,25.8
2019-03-15T13:14:27.651Z,25.7
2019-03-15T13:15:31.965Z,25.7
2019-03-15T13:16:34.800Z,25.5
2019-03-15T13:17:36.979Z,25.8
2019-03-15T13:18:39.440Z,25.9
2019-03-15T13:19:54.115Z,25.9
2019-03-15T13:20:46.586Z,26
2019-03-15T13:21:48.729Z,25.9
2019-03-15T13:22:50.889Z,25.9
2019-03-15T13:23:52.810Z,25.8
2019-03-15T13:24:54.969Z,25.6
2019-03-15T13:25:57.130Z,25.8
2019-03-15T13:27:07.127Z,25.8
2019-03-15T13:28:04.275Z,25.8
2019-03-15T13:29:06.437Z,25.5
2019-03-15T13:30:08.864Z,25.9
2019-03-15T13:31:11.157Z,25.8
2019-03-15T13:32:13.321Z,25.6
2019-03-15T13:33:20.639Z,25.7
2019-03-15T13:34:20.450Z,25.8
2019-03-15T13:35:22.940Z,25.8
2019-03-15T13:36:25.379Z,25.8
2019-03-15T13:37:27.815Z,25.8
2019-03-15T13:38:30.256Z,25.9
2019-03-15T13:39:32.736Z,25.8
2019-03-15T13:40:35.172Z,25.8
2019-03-15T13:41:37.410Z,25.7
2019-03-15T13:42:39.919Z,25.9
2019-03-15T13:43:42.103Z,25.9
2019-03-15T13:44:44.269Z,25.7
2019-03-15T13:45:46.699Z,25.7
2019-03-15T13:46:48.833Z,25.6
2019-03-15T13:47:51.263Z,25.7
2019-03-15T13:48:53.698Z,25.7
2019-03-15T13:49:55.936Z,25.7
2019-03-15T13:50:58.368Z,25.7
2019-03-15T13:52:00.819Z,25.7
2019-03-15T13:53:02.970Z,25.8
2019-03-15T13:54:05.138Z,25.7
2019-03-15T13:55:07.578Z,25.7